Time;durP1;ratioP1;P1;durP2;ratioP2;P2;SDS_P1;SDS_P2;PMS_P1;PMS_P2;Temp;Humidity;BMP_temperature;BMP_pressure;BME280_temperature;BME280_humidity;BME280_pressure;Samples;Min_cycle;Max_cycle;Signal;HPM_P1;HPM_P2
2023/10/22 00:02:06;;;;;;;2.78;1.25;;;14.80;99.90;;;;;;5018382;28;20517;-55
2023/10/22 00:04:31;;;;;;;2.78;0.50;;;14.80;99.90;;;;;;5035345;28;20116;-55
2023/10/22 00:06:58;;;;;;;2.47;0.55;;;14.80;99.90;;;;;;5035284;28;20331;-55
2023/10/22 00:09:24;;;;;;;3.80;0.50;;;14.70;99.90;;;;;;5016767;28;20029;-53
2023/10/22 00:11:49;;;;;;;1.58;0.65;;;14.70;99.90;;;;;;5035192;28;20039;-52
2023/10/22 00:14:15;;;;;;;2.10;1.02;;;14.70;99.90;;;;;;5035068;28;20032;-56
2023/10/22 00:16:40;;;;;;;1.95;0.40;;;14.70;99.90;;;;;;5035255;28;20579;-51
2023/10/22 00:19:06;;;;;;;3.30;0.50;;;14.70;99.90;;;;;;5034994;28;20033;-55
2023/10/22 00:21:32;;;;;;;3.72;0.50;;;14.70;99.90;;;;;;5001350;28;20043;-54
2023/10/22 00:23:58;;;;;;;2.80;0.60;;;14.60;99.90;;;;;;5034616;28;20034;-52
2023/10/22 00:26:24;;;;;;;1.08;0.45;;;14.60;99.90;;;;;;5035853;28;20088;-54
2023/10/22 00:28:51;;;;;;;2.65;0.80;;;14.60;99.90;;;;;;5017104;28;20037;-54
2023/10/22 00:31:17;;;;;;;2.67;0.32;;;14.60;99.90;;;;;;5035196;28;20041;-54
2023/10/22 00:33:43;;;;;;;1.45;0.60;;;14.60;99.90;;;;;;5034924;28;20036;-55
2023/10/22 00:36:08;;;;;;;2.72;0.60;;;14.60;99.90;;;;;;5034817;28;20034;-55
2023/10/22 00:38:34;;;;;;;1.42;0.30;;;14.60;99.90;;;;;;5017115;28;20113;-54
2023/10/22 00:40:59;;;;;;;3.05;0.60;;;14.50;99.90;;;;;;5017496;28;20029;-54
2023/10/22 00:43:25;;;;;;;4.63;0.55;;;14.50;99.90;;;;;;5016937;28;20124;-52
2023/10/22 00:45:52;;;;;;;2.00;0.30;;;14.50;99.90;;;;;;5017084;28;20037;-55
2023/10/22 00:48:20;;;;;;;6.65;0.70;;;14.50;99.90;;;;;;5034734;28;20084;-52
2023/10/22 00:50:45;;;;;;;3.28;0.95;;;14.50;99.90;;;;;;5034499;28;20045;-55
2023/10/22 00:53:14;;;;;;;1.08;0.60;;;14.40;99.90;;;;;;5017325;28;20041;-54
2023/10/22 00:55:41;;;;;;;2.10;0.77;;;14.40;99.90;;;;;;5034938;28;20433;-51
2023/10/22 00:58:07;;;;;;;8.43;2.40;;;14.40;99.90;;;;;;5016977;28;20052;-54
2023/10/22 01:00:34;;;;;;;1.70;0.50;;;14.40;99.90;;;;;;5034900;28;20075;-55
2023/10/22 01:03:01;;;;;;;1.60;0.45;;;14.30;99.90;;;;;;5034393;28;20022;-53
2023/10/22 01:05:28;;;;;;;3.17;0.68;;;14.30;99.90;;;;;;5002056;28;20033;-55
2023/10/22 01:07:54;;;;;;;4.68;0.70;;;14.20;99.90;;;;;;5020665;28;20091;-54
2023/10/22 01:10:19;;;;;;;3.42;0.98;;;14.20;99.90;;;;;;5021168;28;20041;-54
2023/10/22 01:12:45;;;;;;;3.53;0.52;;;14.20;99.90;;;;;;5039012;28;20047;-55
2023/10/22 01:15:11;;;;;;;2.20;0.30;;;14.20;99.90;;;;;;5021475;28;20036;-54
2023/10/22 01:17:37;;;;;;;0.45;0.30;;;14.20;99.90;;;;;;5039068;28;20024;-50
2023/10/22 01:20:04;;;;;;;4.47;0.50;;;14.20;99.90;;;;;;5039457;28;20026;-51
2023/10/22 01:22:32;;;;;;;0.85;0.35;;;14.20;99.90;;;;;;5021046;28;20040;-55
2023/10/22 01:24:58;;;;;;;0.95;0.40;;;14.20;99.90;;;;;;5021060;28;20037;-55
2023/10/22 01:27:23;;;;;;;2.75;0.50;;;14.20;99.90;;;;;;5020779;28;20497;-54
2023/10/22 01:29:49;;;;;;;1.63;0.32;;;14.20;99.90;;;;;;5038469;28;20036;-54
2023/10/22 01:32:15;;;;;;;1.65;0.50;;;14.20;99.90;;;;;;5038925;28;20033;-55
2023/10/22 01:34:41;;;;;;;1.50;0.40;;;14.20;99.90;;;;;;5020746;28;20490;-55
2023/10/22 01:37:06;;;;;;;3.88;0.68;;;14.20;99.90;;;;;;5039425;28;20083;-53
2023/10/22 01:39:32;;;;;;;3.35;0.50;;;14.20;99.90;;;;;;5020949;28;20471;-54
2023/10/22 01:41:58;;;;;;;2.28;0.50;;;14.20;99.90;;;;;;5020819;28;20042;-55
2023/10/22 01:44:23;;;;;;;1.83;0.65;;;14.10;99.90;;;;;;5021287;28;20061;-54
2023/10/22 01:46:50;;;;;;;2.15;0.45;;;14.10;99.90;;;;;;5021279;28;20029;-54
2023/10/22 01:49:16;;;;;;;4.38;0.60;;;14.10;99.90;;;;;;5020621;28;20482;-54
2023/10/22 01:51:42;;;;;;;1.50;0.57;;;14.10;99.90;;;;;;5020545;28;20039;-55
2023/10/22 01:54:09;;;;;;;1.38;0.65;;;14.10;99.90;;;;;;5020067;28;20032;-54
2023/10/22 01:56:34;;;;;;;2.15;0.40;;;14.10;99.90;;;;;;5038455;28;20029;-54
2023/10/22 01:59:00;;;;;;;0.82;0.38;;;14.10;99.90;;;;;;5019840;28;20064;-55
2023/10/22 02:01:26;;;;;;;4.45;0.60;;;14.00;99.90;;;;;;5020287;28;20034;-55
2023/10/22 02:03:52;;;;;;;0.75;0.30;;;14.00;99.90;;;;;;5020350;28;20034;-55
2023/10/22 02:06:18;;;;;;;0.63;0.32;;;14.00;99.90;;;;;;5020208;28;20033;-55
2023/10/22 02:08:45;;;;;;;1.58;0.40;;;14.10;99.90;;;;;;5019727;28;20055;-53
2023/10/22 02:11:11;;;;;;;2.35;0.50;;;14.00;99.90;;;;;;5037504;28;20037;-55
2023/10/22 02:13:37;;;;;;;0.25;0.20;;;14.00;99.90;;;;;;5019540;28;20029;-55
2023/10/22 02:16:03;;;;;;;0.60;0.20;;;14.00;99.90;;;;;;5018984;28;20082;-55
2023/10/22 02:18:29;;;;;;;1.25;0.30;;;14.00;99.90;;;;;;5037456;28;20033;-54
2023/10/22 02:20:57;;;;;;;1.02;0.28;;;14.00;99.90;;;;;;5020205;28;20108;-55
2023/10/22 02:23:24;;;;;;;2.25;0.50;;;14.00;99.90;;;;;;5037812;28;20021;-55
2023/10/22 02:25:50;;;;;;;2.55;0.35;;;13.90;99.90;;;;;;5037264;28;20030;-56
2023/10/22 02:28:17;;;;;;;0.20;0.20;;;13.80;99.90;;;;;;5003812;28;20502;-54
2023/10/22 02:30:43;;;;;;;0.90;0.30;;;13.80;99.90;;;;;;5037515;28;20034;-51
2023/10/22 02:33:09;;;;;;;1.40;0.40;;;13.80;99.90;;;;;;5019136;28;20091;-55
2023/10/22 02:35:41;;;;;;;1.80;0.47;;;13.80;99.90;;;;;;5019408;28;20049;-54
2023/10/22 02:38:08;;;;;;;1.25;0.82;;;13.80;99.90;;;;;;5037160;28;20034;-55
2023/10/22 02:40:37;;;;;;;1.85;0.30;;;13.80;99.90;;;;;;5036926;28;20064;-55
2023/10/22 02:43:03;;;;;;;3.20;0.68;;;13.70;99.90;;;;;;5019988;28;20037;-54
2023/10/22 02:45:29;;;;;;;1.77;0.35;;;13.70;99.90;;;;;;5019364;28;20458;-55
2023/10/22 02:47:57;;;;;;;0.82;0.30;;;13.70;99.90;;;;;;5019855;28;20030;-52
2023/10/22 02:50:24;;;;;;;0.93;0.40;;;13.70;99.90;;;;;;5036781;28;20033;-55
2023/10/22 02:52:50;;;;;;;0.98;0.40;;;13.70;99.90;;;;;;5019698;28;20167;-53
2023/10/22 02:55:17;;;;;;;0.65;0.43;;;13.70;99.90;;;;;;5019492;28;20033;-54
2023/10/22 02:57:43;;;;;;;4.03;0.30;;;13.70;99.90;;;;;;5019273;28;20038;-55
2023/10/22 03:00:10;;;;;;;1.85;0.40;;;13.70;99.90;;;;;;5018382;28;20040;-55
2023/10/22 03:02:40;;;;;;;0.47;0.20;;;13.70;99.90;;;;;;5018981;28;20083;-52
2023/10/22 03:05:06;;;;;;;3.85;0.28;;;13.70;99.90;;;;;;5036423;28;20060;-51
2023/10/22 03:07:32;;;;;;;0.40;0.20;;;13.70;99.90;;;;;;5019208;28;20132;-53
2023/10/22 03:09:58;;;;;;;0.90;0.65;;;13.70;99.90;;;;;;5018931;28;20041;-53
2023/10/22 03:12:24;;;;;;;2.55;0.10;;;13.70;99.90;;;;;;5019102;28;20109;-54
2023/10/22 03:14:53;;;;;;;0.85;0.32;;;13.70;99.90;;;;;;5036242;28;20091;-55
2023/10/22 03:17:20;;;;;;;0.73;0.40;;;13.70;99.90;;;;;;5037109;28;20080;-54
2023/10/22 03:19:45;;;;;;;0.35;0.20;;;13.70;99.90;;;;;;5019034;28;20025;-55
2023/10/22 03:22:11;;;;;;;0.40;0.10;;;13.70;99.90;;;;;;5036602;28;20026;-55
2023/10/22 03:24:37;;;;;;;2.22;0.30;;;13.70;99.90;;;;;;5036532;28;20041;-55
2023/10/22 03:27:05;;;;;;;1.88;0.25;;;13.70;99.90;;;;;;5036639;28;20025;-55
2023/10/22 03:29:32;;;;;;;1.00;0.30;;;13.60;99.90;;;;;;5017723;28;20048;-53
2023/10/22 03:31:58;;;;;;;1.10;0.32;;;13.60;99.90;;;;;;5036260;28;20068;-53
2023/10/22 03:34:27;;;;;;;0.35;0.20;;;13.60;99.90;;;;;;5036132;28;20509;-55
2023/10/22 03:36:52;;;;;;;0.57;0.30;;;13.60;99.90;;;;;;5035486;28;20029;-55
2023/10/22 03:39:18;;;;;;;0.25;0.22;;;13.60;99.90;;;;;;5017578;28;20048;-54
2023/10/22 03:41:44;;;;;;;0.80;0.30;;;13.70;99.90;;;;;;5018200;28;20037;-55
2023/10/22 03:44:10;;;;;;;1.85;0.30;;;13.60;99.90;;;;;;5035302;28;20409;-52
2023/10/22 03:46:36;;;;;;;1.00;0.20;;;13.60;99.90;;;;;;5034844;28;20025;-55
2023/10/22 03:49:02;;;;;;;0.68;0.20;;;13.60;99.90;;;;;;5000605;28;20482;-53
2023/10/22 03:51:27;;;;;;;0.80;0.20;;;13.60;99.90;;;;;;5017381;28;20034;-55
2023/10/22 03:53:53;;;;;;;1.02;0.20;;;13.60;99.90;;;;;;5016940;28;20444;-55
2023/10/22 03:56:22;;;;;;;1.98;0.30;;;13.60;99.90;;;;;;5035017;28;20059;-54
2023/10/22 03:58:49;;;;;;;0.43;0.20;;;13.60;99.90;;;;;;5016763;28;20026;-55
2023/10/22 04:01:15;;;;;;;3.30;0.30;;;13.60;99.90;;;;;;5035169;28;20055;-55
2023/10/22 04:03:40;;;;;;;1.08;0.20;;;13.60;99.90;;;;;;5018073;28;20470;-55
2023/10/22 04:06:06;;;;;;;0.75;0.20;;;13.60;99.90;;;;;;5034962;28;20030;-55
2023/10/22 04:08:32;;;;;;;1.75;0.30;;;13.60;99.90;;;;;;5034784;28;20040;-55
2023/10/22 04:10:57;;;;;;;0.38;0.30;;;13.60;99.90;;;;;;5035541;28;20033;-54
2023/10/22 04:13:23;;;;;;;2.60;0.20;;;13.60;99.90;;;;;;5035912;28;20461;-55
2023/10/22 04:15:51;;;;;;;1.27;0.20;;;13.60;99.90;;;;;;5034963;28;20113;-55
2023/10/22 04:18:19;;;;;;;1.15;0.10;;;13.60;99.90;;;;;;5034549;28;20467;-51
2023/10/22 04:20:44;;;;;;;0.68;0.28;;;13.60;99.90;;;;;;5034805;28;20044;-55
2023/10/22 04:23:10;;;;;;;0.10;0.10;;;13.60;99.90;;;;;;5035269;28;20021;-55
2023/10/22 04:25:39;;;;;;;2.38;0.32;;;13.60;99.90;;;;;;5034730;28;20033;-55
2023/10/22 04:28:05;;;;;;;0.50;0.30;;;13.60;99.90;;;;;;5034474;28;20029;-55
2023/10/22 04:30:30;;;;;;;0.80;0.38;;;13.60;99.90;;;;;;5034548;28;20055;-56
2023/10/22 04:32:56;;;;;;;0.95;0.20;;;13.60;99.90;;;;;;5034761;28;20124;-54
2023/10/22 04:35:21;;;;;;;0.60;0.10;;;13.60;99.90;;;;;;5034498;28;20029;-55
2023/10/22 04:37:47;;;;;;;0.88;0.30;;;13.70;99.90;;;;;;5017557;28;20037;-55
2023/10/22 04:40:13;;;;;;;0.45;0.20;;;13.60;99.90;;;;;;5034710;28;20100;-54
2023/10/22 04:42:38;;;;;;;1.05;0.30;;;13.60;99.90;;;;;;5034638;28;20437;-54
2023/10/22 04:45:04;;;;;;;0.20;0.20;;;13.60;99.90;;;;;;5017014;28;20033;-55
2023/10/22 04:47:30;;;;;;;0.77;0.20;;;13.50;99.90;;;;;;5016856;28;20034;-55
2023/10/22 04:49:55;;;;;;;1.38;0.38;;;13.50;99.90;;;;;;5034861;28;20451;-55
2023/10/22 04:52:27;;;;;;;0.50;0.20;;;13.50;99.90;;;;;;5035037;28;20033;-55
2023/10/22 04:54:53;;;;;;;0.13;0.13;;;13.50;99.90;;;;;;5034994;28;20035;-55
2023/10/22 04:57:19;;;;;;;0.50;0.30;;;13.50;99.90;;;;;;5017050;28;20088;-55
2023/10/22 04:59:44;;;;;;;1.33;0.20;;;13.50;99.90;;;;;;5035025;28;20044;-56
2023/10/22 05:02:10;;;;;;;1.75;0.40;;;13.50;99.90;;;;;;5035006;28;20139;-51
2023/10/22 05:04:35;;;;;;;0.75;0.32;;;13.50;99.90;;;;;;5033839;28;20037;-53
2023/10/22 05:07:01;;;;;;;0.63;0.28;;;13.50;99.90;;;;;;5034354;28;20040;-54
2023/10/22 05:09:27;;;;;;;0.35;0.28;;;13.50;99.90;;;;;;5016203;28;20064;-54
2023/10/22 05:11:52;;;;;;;0.30;0.10;;;13.50;99.90;;;;;;5033990;28;20056;-54
2023/10/22 05:14:18;;;;;;;0.60;0.40;;;13.50;99.90;;;;;;5033709;28;20091;-51
2023/10/22 05:16:44;;;;;;;1.02;0.30;;;13.50;99.90;;;;;;5034148;28;20029;-54
2023/10/22 05:19:09;;;;;;;3.63;0.28;;;13.50;99.90;;;;;;5016813;28;20037;-54
2023/10/22 05:21:37;;;;;;;0.63;0.20;;;13.50;99.90;;;;;;5017114;28;20124;-51
2023/10/22 05:24:03;;;;;;;4.07;0.60;;;13.40;99.90;;;;;;5034181;28;20033;-51
2023/10/22 05:26:28;;;;;;;0.43;0.25;;;13.40;99.90;;;;;;5016631;28;20026;-52
2023/10/22 05:28:55;;;;;;;1.73;0.30;;;13.40;99.90;;;;;;5033969;28;20042;-53
2023/10/22 05:31:22;;;;;;;0.40;0.20;;;13.40;99.90;;;;;;5034577;28;20525;-55
2023/10/22 05:33:47;;;;;;;0.60;0.20;;;13.40;99.90;;;;;;5033955;28;20385;-53
2023/10/22 05:36:17;;;;;;;1.15;0.28;;;13.40;99.90;;;;;;5016166;28;20033;-53
2023/10/22 05:38:43;;;;;;;0.52;0.40;;;13.40;99.90;;;;;;5034148;28;20036;-55
2023/10/22 05:41:19;;;;;;;0.70;0.30;;;13.30;99.90;;;;;;5034140;28;20086;-55
2023/10/22 05:43:45;;;;;;;0.85;0.35;;;13.30;99.90;;;;;;5034703;28;20025;-55
2023/10/22 05:46:10;;;;;;;3.33;0.60;;;13.40;99.90;;;;;;5034082;28;20116;-54
2023/10/22 05:48:36;;;;;;;1.13;0.60;;;13.30;99.90;;;;;;5033880;28;20029;-55
2023/10/22 05:51:02;;;;;;;0.63;0.30;;;13.30;99.90;;;;;;5035042;28;20474;-53
2023/10/22 05:53:28;;;;;;;2.13;1.15;;;13.30;99.90;;;;;;5019228;28;20486;-54
2023/10/22 05:55:58;;;;;;;2.45;0.50;;;13.30;99.90;;;;;;5037407;28;20033;-55
2023/10/22 05:58:27;;;;;;;0.82;0.43;;;13.30;99.90;;;;;;5036896;28;20360;-53
2023/10/22 06:00:53;;;;;;;2.17;0.50;;;13.30;99.90;;;;;;5020125;28;20040;-55
2023/10/22 06:03:18;;;;;;;1.25;0.50;;;13.30;99.90;;;;;;5037204;28;20048;-54
2023/10/22 06:05:45;;;;;;;1.55;0.50;;;13.30;99.90;;;;;;5038013;28;20514;-51
2023/10/22 06:08:11;;;;;;;0.90;0.50;;;13.30;99.90;;;;;;5037896;28;20040;-52
2023/10/22 06:10:44;;;;;;;0.60;0.30;;;13.20;99.90;;;;;;5038320;28;20034;-54
2023/10/22 06:13:11;;;;;;;1.33;0.30;;;13.20;99.90;;;;;;5037828;28;20549;-55
2023/10/22 06:15:42;;;;;;;1.00;0.30;;;13.10;99.90;;;;;;5037406;28;20038;-55
2023/10/22 06:18:08;;;;;;;1.38;0.52;;;13.10;99.90;;;;;;5037877;28;20041;-53
2023/10/22 06:20:34;;;;;;;0.57;0.30;;;13.10;99.90;;;;;;5037695;28;20489;-55
2023/10/22 06:23:04;;;;;;;2.15;0.40;;;13.00;99.90;;;;;;5038284;28;20080;-54
2023/10/22 06:25:31;;;;;;;3.05;1.10;;;13.10;99.90;;;;;;5038367;28;20033;-51
2023/10/22 06:27:58;;;;;;;6.95;3.28;;;13.00;99.90;;;;;;5037404;28;20048;-54
2023/10/22 06:30:25;;;;;;;1.58;0.70;;;13.10;99.90;;;;;;5037701;28;20089;-52
2023/10/22 06:32:54;;;;;;;1.63;0.40;;;13.10;99.90;;;;;;5038075;28;20505;-53
2023/10/22 06:35:20;;;;;;;1.35;0.50;;;13.10;99.90;;;;;;5037857;28;20034;-52
2023/10/22 06:37:47;;;;;;;0.65;0.30;;;13.10;99.90;;;;;;5037706;28;20036;-53
2023/10/22 06:40:13;;;;;;;2.05;0.60;;;13.00;99.90;;;;;;5036919;28;20034;-54
2023/10/22 06:42:40;;;;;;;0.73;0.35;;;13.00;99.90;;;;;;5037142;28;20116;-54
2023/10/22 06:45:07;;;;;;;0.95;0.35;;;13.00;99.90;;;;;;5036852;28;20055;-53
2023/10/22 06:47:39;;;;;;;0.90;0.30;;;13.00;99.90;;;;;;5019654;28;20040;-53
2023/10/22 06:50:07;;;;;;;2.15;0.40;;;12.90;99.90;;;;;;5002574;28;20043;-54
2023/10/22 06:52:33;;;;;;;0.55;0.22;;;12.90;99.90;;;;;;5037027;28;20068;-51
2023/10/22 06:54:59;;;;;;;2.25;0.40;;;12.90;99.90;;;;;;5036554;28;20086;-52
2023/10/22 06:57:25;;;;;;;1.13;0.20;;;12.90;99.90;;;;;;5036768;28;20029;-54
2023/10/22 06:59:52;;;;;;;0.52;0.25;;;12.90;99.90;;;;;;5036776;28;20041;-53
2023/10/22 07:02:18;;;;;;;1.38;0.35;;;12.90;99.90;;;;;;5036104;28;20033;-54
2023/10/22 07:04:44;;;;;;;1.52;0.30;;;12.90;99.90;;;;;;5036066;28;20033;-53
2023/10/22 07:07:10;;;;;;;0.60;0.35;;;12.80;99.90;;;;;;5036133;28;20478;-54
2023/10/22 07:09:37;;;;;;;0.35;0.30;;;12.90;99.90;;;;;;5018583;28;20049;-54
2023/10/22 07:12:03;;;;;;;2.40;0.50;;;12.90;99.90;;;;;;5036718;28;20061;-52
2023/10/22 07:14:28;;;;;;;0.98;0.47;;;13.00;99.90;;;;;;5036850;28;20037;-54
2023/10/22 07:16:54;;;;;;;0.88;0.30;;;12.90;99.90;;;;;;5036474;28;20036;-52
2023/10/22 07:19:20;;;;;;;1.08;0.40;;;13.00;99.90;;;;;;5018788;28;20109;-53
2023/10/22 07:21:45;;;;;;;1.05;0.30;;;13.00;99.90;;;;;;5018939;28;20026;-55
2023/10/22 07:24:11;;;;;;;0.35;0.25;;;13.10;99.90;;;;;;5036850;28;20045;-54
2023/10/22 07:26:37;;;;;;;0.70;0.40;;;13.00;99.90;;;;;;5036339;28;20036;-54
2023/10/22 07:29:02;;;;;;;1.10;0.30;;;13.10;99.90;;;;;;5037128;28;20518;-54
2023/10/22 07:31:28;;;;;;;1.45;0.40;;;13.00;99.90;;;;;;5018869;28;20053;-55
2023/10/22 07:33:54;;;;;;;0.65;0.22;;;13.00;99.90;;;;;;5036168;28;20069;-54
2023/10/22 07:36:19;;;;;;;1.23;0.47;;;13.00;99.90;;;;;;5019417;28;20061;-55
2023/10/22 07:38:45;;;;;;;1.85;0.80;;;13.00;99.90;;;;;;5018192;28;20037;-55
2023/10/22 07:41:17;;;;;;;1.17;0.52;;;12.90;99.90;;;;;;5019345;28;20033;-54
2023/10/22 07:43:43;;;;;;;0.80;0.50;;;13.00;99.90;;;;;;5037362;28;20034;-55
2023/10/22 07:46:10;;;;;;;1.55;0.38;;;13.00;99.90;;;;;;5018566;28;20468;-52
2023/10/22 07:48:37;;;;;;;0.98;0.45;;;12.90;99.90;;;;;;5036701;28;20069;-54
2023/10/22 07:51:15;;;;;;;2.08;0.40;;;12.90;99.90;;;;;;5036121;28;20044;-53
2023/10/22 07:53:40;;;;;;;0.90;0.32;;;12.90;99.90;;;;;;5036604;28;20034;-54
2023/10/22 07:56:07;;;;;;;0.60;0.40;;;13.00;99.90;;;;;;5035658;28;20040;-56
2023/10/22 07:58:32;;;;;;;1.13;0.30;;;13.00;99.90;;;;;;5036022;28;20479;-56
2023/10/22 08:00:59;;;;;;;1.48;0.47;;;13.00;99.90;;;;;;5035845;28;20021;-55
2023/10/22 08:03:27;;;;;;;1.05;0.30;;;13.10;99.90;;;;;;5036590;28;20059;-54
2023/10/22 08:05:53;;;;;;;1.80;0.60;;;13.00;99.90;;;;;;5035519;28;20029;-55
2023/10/22 08:08:18;;;;;;;2.33;0.40;;;13.00;99.90;;;;;;5035680;28;20489;-55
2023/10/22 08:10:44;;;;;;;0.77;0.40;;;13.00;99.90;;;;;;5018223;28;20033;-54
2023/10/22 08:13:09;;;;;;;2.00;0.50;;;13.10;99.90;;;;;;5036196;28;20052;-54
2023/10/22 08:15:35;;;;;;;1.35;0.70;;;13.20;99.90;;;;;;5001463;28;20113;-55
2023/10/22 08:18:01;;;;;;;1.20;0.55;;;13.20;99.90;;;;;;5035209;28;20032;-54
2023/10/22 08:20:26;;;;;;;1.35;0.40;;;13.20;99.90;;;;;;5035915;28;20116;-54
2023/10/22 08:22:52;;;;;;;17.80;8.35;;;13.20;99.90;;;;;;5035550;28;20076;-54
2023/10/22 08:25:17;;;;;;;5.25;1.70;;;13.20;99.90;;;;;;5035760;28;20120;-55
2023/10/22 08:27:43;;;;;;;4.05;2.05;;;13.20;99.90;;;;;;5035634;28;20030;-54
2023/10/22 08:30:09;;;;;;;5.30;2.80;;;13.30;99.90;;;;;;5035206;28;20038;-55
2023/10/22 08:32:35;;;;;;;0.80;0.43;;;13.30;99.90;;;;;;5035192;28;20037;-54
2023/10/22 08:35:02;;;;;;;3.38;0.50;;;13.30;99.90;;;;;;5017376;28;20564;-54
2023/10/22 08:37:27;;;;;;;0.43;0.40;;;13.30;99.90;;;;;;5017298;28;20033;-51
2023/10/22 08:39:54;;;;;;;2.80;0.68;;;13.30;99.90;;;;;;5018594;28;20021;-55
2023/10/22 08:42:23;;;;;;;0.82;0.40;;;13.30;99.90;;;;;;5036003;28;20100;-55
2023/10/22 08:44:49;;;;;;;0.88;0.40;;;13.30;99.90;;;;;;5035619;28;20026;-56
2023/10/22 08:47:16;;;;;;;0.82;0.32;;;13.30;99.90;;;;;;5035906;28;20409;-54
2023/10/22 08:49:42;;;;;;;0.98;0.38;;;13.30;99.90;;;;;;5035563;28;20487;-55
2023/10/22 08:52:11;;;;;;;0.52;0.22;;;13.30;99.90;;;;;;5035451;28;20038;-54
2023/10/22 08:54:37;;;;;;;1.25;0.60;;;13.40;99.90;;;;;;5018041;28;20104;-54
2023/10/22 08:57:03;;;;;;;0.50;0.40;;;13.30;99.90;;;;;;5035833;28;20049;-55
2023/10/22 08:59:29;;;;;;;1.50;0.30;;;13.30;99.90;;;;;;5034716;28;20029;-55
2023/10/22 09:01:56;;;;;;;2.70;0.60;;;13.40;99.90;;;;;;5035089;28;20091;-51
2023/10/22 09:04:22;;;;;;;3.35;1.10;;;13.40;99.90;;;;;;5034713;28;20038;-55
2023/10/22 09:06:52;;;;;;;0.32;0.20;;;13.40;99.90;;;;;;5035166;28;20051;-54
2023/10/22 09:09:29;;;;;;;1.20;0.52;;;13.40;99.90;;;;;;5034334;28;20088;-56
2023/10/22 09:11:55;;;;;;;2.38;0.70;;;13.50;99.90;;;;;;5017232;28;20902;-54
2023/10/22 09:14:22;;;;;;;1.00;0.45;;;13.50;99.90;;;;;;5034232;28;20474;-53
2023/10/22 09:16:49;;;;;;;1.55;0.68;;;13.50;99.90;;;;;;5034800;28;20026;-55
2023/10/22 09:19:33;;;;;;;1.58;0.45;;;13.60;99.90;;;;;;5034009;28;20065;-54
2023/10/22 09:21:59;;;;;;;1.55;0.70;;;13.70;99.90;;;;;;5034074;28;20478;-54
2023/10/22 09:24:24;;;;;;;2.85;0.75;;;13.80;99.90;;;;;;5017286;28;20083;-55
2023/10/22 09:26:50;;;;;;;1.77;0.60;;;13.90;99.90;;;;;;5019337;28;20116;-55
2023/10/22 09:29:16;;;;;;;1.13;0.65;;;14.00;99.90;;;;;;5038454;28;20029;-55
2023/10/22 09:31:55;;;;;;;1.55;0.47;;;14.00;99.90;;;;;;5038373;28;20065;-55
2023/10/22 09:34:33;;;;;;;3.00;0.50;;;14.10;99.90;;;;;;5038593;28;20604;-55
2023/10/22 09:36:59;;;;;;;0.65;0.40;;;14.20;99.90;;;;;;5038802;28;20454;-55
2023/10/22 09:39:45;;;;;;;1.42;0.40;;;14.30;99.90;;;;;;5038527;28;20057;-56
2023/10/22 09:42:16;;;;;;;1.83;0.50;;;14.30;99.90;;;;;;5038753;28;20112;-53
2023/10/22 09:44:44;;;;;;;1.95;0.50;;;14.30;99.90;;;;;;5038597;28;20041;-53
2023/10/22 09:47:19;;;;;;;1.48;0.35;;;14.30;99.90;;;;;;5038410;28;20045;-54
2023/10/22 09:49:50;;;;;;;1.67;0.40;;;14.30;99.90;;;;;;5038791;28;20087;-55
2023/10/22 09:52:17;;;;;;;3.15;0.70;;;14.20;99.90;;;;;;5038986;28;20037;-55
2023/10/22 09:54:48;;;;;;;0.98;0.45;;;14.30;99.90;;;;;;5038109;28;20114;-51
2023/10/22 09:57:15;;;;;;;1.40;0.40;;;14.30;99.90;;;;;;5038189;28;20033;-55
2023/10/22 09:59:42;;;;;;;1.60;0.32;;;14.30;99.90;;;;;;5037349;28;20042;-56
2023/10/22 10:02:12;;;;;;;0.98;0.32;;;14.30;99.90;;;;;;5020759;28;20038;-53
2023/10/22 10:04:40;;;;;;;0.70;0.40;;;14.40;99.90;;;;;;5038170;28;20037;-55
2023/10/22 10:07:06;;;;;;;0.88;0.50;;;14.50;99.90;;;;;;5038421;28;20034;-55
2023/10/22 10:09:34;;;;;;;1.42;0.40;;;14.50;99.90;;;;;;5038774;28;20099;-56
2023/10/22 10:12:03;;;;;;;1.02;0.30;;;14.60;99.90;;;;;;5038672;28;20037;-54
2023/10/22 10:14:42;;;;;;;3.92;0.50;;;14.60;99.90;;;;;;5020555;28;20041;-54
2023/10/22 10:17:10;;;;;;;0.52;0.40;;;14.60;99.90;;;;;;5038517;28;20087;-50
2023/10/22 10:19:35;;;;;;;0.65;0.32;;;14.50;99.90;;;;;;5038305;28;20033;-53
2023/10/22 10:22:01;;;;;;;1.02;0.30;;;14.60;99.90;;;;;;5020597;28;20100;-54
2023/10/22 10:24:28;;;;;;;0.98;0.30;;;14.60;99.90;;;;;;5038248;28;20030;-54
2023/10/22 10:26:56;;;;;;;0.75;0.40;;;14.50;99.90;;;;;;5038818;28;20030;-55
2023/10/22 10:29:32;;;;;;;0.63;0.40;;;14.50;99.90;;;;;;5038189;28;20499;-51
2023/10/22 10:32:13;;;;;;;1.40;0.40;;;14.60;99.90;;;;;;5038322;28;20049;-52
2023/10/22 10:34:46;;;;;;;0.80;0.30;;;14.60;99.90;;;;;;5020147;28;20060;-51
2023/10/22 10:37:22;;;;;;;1.10;0.47;;;14.60;99.90;;;;;;5037899;28;20116;-52
2023/10/22 10:39:49;;;;;;;0.73;0.30;;;14.70;99.90;;;;;;5037431;28;20116;-52
2023/10/22 10:42:36;;;;;;;1.30;0.25;;;14.70;99.90;;;;;;5037830;28;20457;-54
2023/10/22 10:45:04;;;;;;;1.58;0.50;;;14.70;99.90;;;;;;5037480;28;20037;-53
2023/10/22 10:47:33;;;;;;;0.82;0.40;;;14.70;99.90;;;;;;5037775;28;20029;-54
2023/10/22 10:50:03;;;;;;;0.73;0.40;;;14.70;99.90;;;;;;5037715;28;20034;-51
2023/10/22 10:52:38;;;;;;;2.92;0.40;;;14.70;99.90;;;;;;5037875;28;20107;-52
2023/10/22 10:55:15;;;;;;;1.23;0.50;;;14.70;99.90;;;;;;5037922;28;20040;-53
2023/10/22 10:57:49;;;;;;;1.30;0.57;;;14.70;99.90;;;;;;5037986;28;20056;-52
2023/10/22 11:00:24;;;;;;;0.95;0.40;;;14.80;99.90;;;;;;5037860;28;20033;-50
2023/10/22 11:02:51;;;;;;;0.80;0.35;;;14.80;99.90;;;;;;5004290;28;20048;-55
2023/10/22 11:05:39;;;;;;;1.60;0.40;;;14.90;99.90;;;;;;5037956;28;20478;-55
2023/10/22 11:08:18;;;;;;;0.32;0.30;;;14.90;99.90;;;;;;5037751;28;20029;-52
2023/10/22 11:10:45;;;;;;;0.75;0.40;;;14.80;99.90;;;;;;5037905;28;20048;-54
2023/10/22 11:13:11;;;;;;;0.73;0.20;;;14.80;99.90;;;;;;5037656;28;20042;-54
2023/10/22 11:15:38;;;;;;;0.90;0.40;;;14.70;99.90;;;;;;5038254;28;20056;-51
2023/10/22 11:18:06;;;;;;;0.57;0.20;;;14.70;99.90;;;;;;5037790;28;20029;-54
2023/10/22 11:20:32;;;;;;;1.48;0.50;;;14.90;99.90;;;;;;5038108;28;20060;-54
2023/10/22 11:22:58;;;;;;;0.95;0.30;;;14.90;99.90;;;;;;5037510;28;20091;-55
2023/10/22 11:25:25;;;;;;;2.35;0.40;;;14.90;99.90;;;;;;5019921;28;20124;-55
2023/10/22 11:27:51;;;;;;;3.97;0.80;;;15.00;99.90;;;;;;5036661;28;20159;-55
2023/10/22 11:30:36;;;;;;;0.73;0.30;;;15.10;99.90;;;;;;5019130;28;20057;-53
2023/10/22 11:33:12;;;;;;;0.93;0.65;;;15.20;99.90;;;;;;5019318;28;20033;-55
2023/10/22 11:35:38;;;;;;;2.58;0.50;;;15.40;99.90;;;;;;5035806;28;20125;-54
2023/10/22 11:38:05;;;;;;;1.13;0.45;;;15.50;99.90;;;;;;5036688;28;20509;-55
2023/10/22 11:40:36;;;;;;;0.30;0.30;;;15.50;99.90;;;;;;5036466;28;20471;-54
2023/10/22 11:43:16;;;;;;;0.95;0.35;;;15.70;99.90;;;;;;5036622;28;20056;-55
2023/10/22 11:45:52;;;;;;;;;;;15.70;99.90;;;;;;5037187;28;20048;-54
2023/10/22 11:48:19;;;;;;;1.83;0.60;;;15.70;99.90;;;;;;5034793;28;20446;-56
2023/10/22 11:50:46;;;;;;;0.95;0.40;;;15.60;99.90;;;;;;5035297;28;20037;-54
2023/10/22 11:53:12;;;;;;;1.23;0.30;;;15.40;99.90;;;;;;5035963;28;20038;-55
2023/10/22 11:55:37;;;;;;;1.67;0.40;;;15.30;99.90;;;;;;5018062;28;20037;-55
2023/10/22 11:58:04;;;;;;;1.52;0.40;;;15.30;99.90;;;;;;5017214;28;20954;-54
2023/10/22 12:00:30;;;;;;;1.95;0.40;;;15.30;99.90;;;;;;5035693;28;20029;-55
2023/10/22 12:02:56;;;;;;;1.05;0.40;;;15.30;99.90;;;;;;5018313;28;20025;-54
2023/10/22 12:05:21;;;;;;;1.25;0.50;;;15.30;99.90;;;;;;5036297;28;20034;-55
2023/10/22 12:07:47;;;;;;;0.85;0.40;;;15.30;99.90;;;;;;5035786;28;20036;-54
2023/10/22 12:10:13;;;;;;;2.72;0.40;;;15.30;99.90;;;;;;5035253;28;20040;-53
2023/10/22 12:12:38;;;;;;;1.23;0.50;;;15.50;99.90;;;;;;5036101;28;20486;-55
2023/10/22 12:15:05;;;;;;;1.10;0.40;;;15.70;99.90;;;;;;5035638;28;20029;-54
2023/10/22 12:17:31;;;;;;;1.30;0.43;;;16.10;99.90;;;;;;5036527;28;20430;-53
2023/10/22 12:19:57;;;;;;;1.02;0.30;;;16.70;99.90;;;;;;5035826;28;20393;-54
2023/10/22 12:22:22;;;;;;;2.47;0.88;;;17.10;99.90;;;;;;5018288;28;20034;-51
2023/10/22 12:24:53;;;;;;;0.77;0.40;;;17.10;99.90;;;;;;5035019;28;20075;-54
2023/10/22 12:27:19;;;;;;;3.05;0.73;;;16.80;99.90;;;;;;5035534;28;20084;-55
2023/10/22 12:29:45;;;;;;;1.65;0.40;;;16.50;99.90;;;;;;5035561;28;20033;-54
2023/10/22 12:32:11;;;;;;;2.03;0.40;;;16.50;99.90;;;;;;5035783;28;20425;-54
2023/10/22 12:34:37;;;;;;;0.68;0.32;;;16.30;99.90;;;;;;5035780;28;20030;-54
2023/10/22 12:37:03;;;;;;;1.25;0.40;;;16.40;99.90;;;;;;5018064;28;20548;-55
2023/10/22 12:39:28;;;;;;;2.92;0.43;;;16.30;99.90;;;;;;5035526;28;20029;-53
2023/10/22 12:41:54;;;;;;;0.82;0.40;;;16.20;99.90;;;;;;5035652;28;20109;-53
2023/10/22 12:44:24;;;;;;;1.30;0.40;;;16.20;99.90;;;;;;5035237;28;20048;-52
2023/10/22 12:46:50;;;;;;;6.38;2.75;;;16.10;99.90;;;;;;5034807;28;20041;-53
2023/10/22 12:49:15;;;;;;;2.13;0.82;;;16.00;99.90;;;;;;5034661;28;20041;-54